createdAt,value
2022-12-23T00:00:29.504Z,10.63
2022-12-23T00:02:56.617Z,12.25
2022-12-23T00:05:23.685Z,11.90
2022-12-23T00:07:50.618Z,11.15
2022-12-23T00:10:17.456Z,11.10
2022-12-23T00:13:02.815Z,11.05
2022-12-23T00:15:29.626Z,11.32
2022-12-23T00:17:56.427Z,11.83
2022-12-23T00:20:23.652Z,11.30
2022-12-23T00:23:05.697Z,10.68
2022-12-23T00:25:41.866Z,10.95
2022-12-23T00:28:18.209Z,10.63
2022-12-23T00:30:49.374Z,10.68
2022-12-23T00:33:18.408Z,10.68
2022-12-23T00:35:46.522Z,10.00
2022-12-23T00:38:13.949Z,11.50
2022-12-23T00:41:02.290Z,11.05
2022-12-23T00:43:29.109Z,9.88
2022-12-23T00:45:56.108Z,11.73
2022-12-23T00:48:41.777Z,10.05
2022-12-23T00:51:08.676Z,9.50
2022-12-23T00:53:35.555Z,10.23
2022-12-23T00:56:02.333Z,9.60
2022-12-23T00:58:29.418Z,9.75
2022-12-23T01:01:15.253Z,11.00
2022-12-23T01:04:00.935Z,11.02
2022-12-23T01:06:27.971Z,10.60
2022-12-23T01:08:54.831Z,9.65
2022-12-23T01:11:21.831Z,10.50
2022-12-23T01:13:48.714Z,12.18
2022-12-23T01:16:17.864Z,12.23
2022-12-23T01:18:45.521Z,13.02
2022-12-23T01:21:12.729Z,12.00
2022-12-23T01:23:39.713Z,11.40
2022-12-23T01:26:08.178Z,11.52
2022-12-23T01:28:36.265Z,11.73
2022-12-23T01:31:05.276Z,11.23
2022-12-23T01:33:33.403Z,12.20
2022-12-23T01:36:06.043Z,11.65
2022-12-23T01:38:34.264Z,11.00
2022-12-23T01:41:01.489Z,13.38
2022-12-23T01:43:51.931Z,11.65
2022-12-23T01:46:18.977Z,11.18
2022-12-23T01:48:51.439Z,12.10
2022-12-23T01:51:25.901Z,11.38
2022-12-23T01:53:57.516Z,10.70
2022-12-23T01:56:32.487Z,10.90
2022-12-23T01:59:32.418Z,12.10
2022-12-23T02:02:18.024Z,11.35
2022-12-23T02:04:45.260Z,11.05
2022-12-23T02:07:32.049Z,11.10
2022-12-23T02:09:59.252Z,11.35
2022-12-23T02:13:05.764Z,11.55
2022-12-23T02:16:11.510Z,12.32
2022-12-23T02:18:56.695Z,10.68
2022-12-23T02:21:42.117Z,11.82
2022-12-23T02:24:30.483Z,11.20
2022-12-23T02:27:03.089Z,10.82
2022-12-23T02:30:07.977Z,10.48
2022-12-23T02:33:19.461Z,11.05
2022-12-23T02:35:58.271Z,12.43
2022-12-23T02:38:42.948Z,10.85
2022-12-23T02:41:23.004Z,11.98
2022-12-23T02:44:19.186Z,10.38
2022-12-23T02:46:49.955Z,9.77
2022-12-23T02:49:40.302Z,12.38
2022-12-23T02:52:14.230Z,10.40
2022-12-23T02:54:56.729Z,12.32
2022-12-23T02:57:29.368Z,11.85
2022-12-23T02:59:57.914Z,10.35
2022-12-23T03:02:24.876Z,10.25
2022-12-23T03:04:51.949Z,9.88
2022-12-23T03:07:27.054Z,11.02
2022-12-23T03:10:22.130Z,11.43
2022-12-23T03:13:01.021Z,11.07
2022-12-23T03:15:38.198Z,11.20
2022-12-23T03:18:51.209Z,11.38
2022-12-23T03:21:40.152Z,10.60
2022-12-23T03:24:24.702Z,10.85
2022-12-23T03:27:12.547Z,9.50
2022-12-23T03:30:02.099Z,10.20
2022-12-23T03:32:33.464Z,10.50
2022-12-23T03:35:02.606Z,10.18
2022-12-23T03:37:33.163Z,9.70
2022-12-23T03:40:22.123Z,9.82
2022-12-23T03:42:54.903Z,7.68
2022-12-23T03:45:40.672Z,8.45
2022-12-23T03:48:24.012Z,8.15
2022-12-23T03:50:58.227Z,8.70
2022-12-23T03:53:36.653Z,9.20
2022-12-23T03:56:09.216Z,9.60
2022-12-23T03:58:43.799Z,8.57
2022-12-23T04:01:14.644Z,8.23
2022-12-23T04:04:07.041Z,8.75
2022-12-23T04:06:41.762Z,8.63
2022-12-23T04:09:09.157Z,8.32
2022-12-23T04:11:36.665Z,9.05
2022-12-23T04:14:03.712Z,9.57
2022-12-23T04:16:30.732Z,10.40
2022-12-23T04:18:57.702Z,9.85
2022-12-23T04:21:24.597Z,8.80
2022-12-23T04:23:51.499Z,8.75
2022-12-23T04:26:18.332Z,8.80
2022-12-23T04:28:45.179Z,9.40
2022-12-23T04:31:12.119Z,9.18
2022-12-23T04:33:39.074Z,9.38
2022-12-23T04:36:06.251Z,10.00
2022-12-23T04:38:33.192Z,9.00
2022-12-23T04:40:59.978Z,8.88
2022-12-23T04:43:26.777Z,9.63
2022-12-23T04:45:53.706Z,8.75
2022-12-23T04:48:20.722Z,9.43
2022-12-23T04:50:47.623Z,9.32
2022-12-23T04:53:14.578Z,9.60
2022-12-23T04:55:41.349Z,9.13
2022-12-23T04:58:08.185Z,9.65
2022-12-23T05:00:39.509Z,7.95
2022-12-23T05:03:06.929Z,8.05
2022-12-23T05:05:33.903Z,7.60
2022-12-23T05:08:06.858Z,7.80
2022-12-23T05:10:33.692Z,7.97
2022-12-23T05:13:00.497Z,7.72
2022-12-23T05:15:27.272Z,9.00
2022-12-23T05:17:54.110Z,7.60
2022-12-23T05:20:20.958Z,8.45
2022-12-23T05:22:47.815Z,7.53
2022-12-23T05:25:14.763Z,8.20
2022-12-23T05:27:41.603Z,7.85
2022-12-23T05:30:09.301Z,8.50
2022-12-23T05:32:36.600Z,8.43
2022-12-23T05:35:03.625Z,7.85
2022-12-23T05:37:30.480Z,8.75
2022-12-23T05:39:57.407Z,8.27
2022-12-23T05:42:24.501Z,9.77
2022-12-23T05:44:51.315Z,9.20
2022-12-23T05:47:18.141Z,8.80
2022-12-23T05:49:45.001Z,9.07
2022-12-23T05:52:11.790Z,8.77
2022-12-23T05:54:38.657Z,9.43
2022-12-23T05:57:05.438Z,10.18
2022-12-23T05:59:32.303Z,9.48
2022-12-23T06:01:59.563Z,9.52
2022-12-23T06:04:26.727Z,9.32
2022-12-23T06:06:53.710Z,9.32
2022-12-23T06:09:20.638Z,10.27
2022-12-23T06:11:47.835Z,10.55
2022-12-23T06:14:14.754Z,9.70
2022-12-23T06:16:41.711Z,10.57
2022-12-23T06:19:08.764Z,11.85
2022-12-23T06:21:35.581Z,10.82
2022-12-23T06:24:02.864Z,12.13
2022-12-23T06:26:29.852Z,10.55
2022-12-23T06:28:56.689Z,12.02
2022-12-23T06:31:23.786Z,11.80
2022-12-23T06:33:50.664Z,11.20
2022-12-23T06:36:17.553Z,10.90
2022-12-23T06:38:44.424Z,11.60
2022-12-23T06:41:11.576Z,11.18
2022-12-23T06:43:38.452Z,10.43
2022-12-23T06:46:05.598Z,10.88
2022-12-23T06:48:32.629Z,11.80
2022-12-23T06:50:59.658Z,10.90
2022-12-23T06:53:26.500Z,11.63
2022-12-23T06:56:01.232Z,10.73
2022-12-23T06:58:28.164Z,11.38
2022-12-23T07:00:55.413Z,10.73
2022-12-23T07:03:22.444Z,11.98
2022-12-23T07:05:50.439Z,11.10
2022-12-23T07:08:18.673Z,10.65
2022-12-23T07:10:45.821Z,11.75
2022-12-23T07:13:12.820Z,11.68
2022-12-23T07:15:40.236Z,11.13
2022-12-23T07:18:07.794Z,12.70
2022-12-23T07:20:34.649Z,10.50
2022-12-23T07:23:01.677Z,12.07
2022-12-23T07:25:28.579Z,11.00
2022-12-23T07:27:56.048Z,11.02
2022-12-23T07:30:24.038Z,11.15
2022-12-23T07:32:51.379Z,11.05
2022-12-23T07:35:18.716Z,11.93
2022-12-23T07:37:45.993Z,12.35
2022-12-23T07:40:13.107Z,11.38
2022-12-23T07:42:45.728Z,13.10
2022-12-23T07:45:13.280Z,12.40
2022-12-23T07:47:40.215Z,13.40
2022-12-23T07:50:07.817Z,12.57
2022-12-23T07:52:34.764Z,12.77
2022-12-23T07:55:01.680Z,13.10
2022-12-23T07:57:29.453Z,12.82
2022-12-23T07:59:56.327Z,13.35
2022-12-23T08:02:25.519Z,13.50
2022-12-23T08:04:52.665Z,12.20
2022-12-23T08:07:19.545Z,14.45
2022-12-23T08:09:46.375Z,13.45
2022-12-23T08:12:13.273Z,14.15
2022-12-23T08:14:40.293Z,14.20
2022-12-23T08:17:07.197Z,12.95
2022-12-23T08:19:34.081Z,15.07
2022-12-23T08:22:00.966Z,13.90
2022-12-23T08:24:27.866Z,12.57
2022-12-23T08:26:54.858Z,12.68
2022-12-23T08:29:21.764Z,12.63
2022-12-23T08:31:50.327Z,13.85
2022-12-23T08:34:17.444Z,13.10
2022-12-23T08:36:44.203Z,14.23
2022-12-23T08:39:11.570Z,14.75
2022-12-23T08:41:44.955Z,11.95
2022-12-23T08:44:12.304Z,14.63
2022-12-23T08:46:39.858Z,14.25
2022-12-23T08:49:06.982Z,12.80
2022-12-23T08:51:34.731Z,14.40
2022-12-23T08:54:01.767Z,13.38
2022-12-23T08:56:34.964Z,12.65
2022-12-23T08:59:02.425Z,12.50
2022-12-23T09:01:30.945Z,13.13
2022-12-23T09:03:58.178Z,12.95
2022-12-23T09:06:30.073Z,12.50
2022-12-23T09:08:57.841Z,12.95
2022-12-23T09:11:27.331Z,13.32
2022-12-23T09:13:55.078Z,14.15
2022-12-23T09:16:22.695Z,14.05
2022-12-23T09:18:49.676Z,13.50
2022-12-23T09:21:20.217Z,13.00
2022-12-23T09:23:47.496Z,14.60
2022-12-23T09:26:22.880Z,11.43
2022-12-23T09:28:49.711Z,13.00
2022-12-23T09:31:16.855Z,13.25
2022-12-23T09:33:48.171Z,12.45
2022-12-23T09:36:15.006Z,12.25
2022-12-23T09:38:41.964Z,12.40
2022-12-23T09:41:42.839Z,12.10
2022-12-23T09:44:31.382Z,12.75
2022-12-23T09:47:08.016Z,12.23
2022-12-23T09:49:37.019Z,11.43
2022-12-23T09:52:09.214Z,12.50
2022-12-23T09:54:46.017Z,12.45
2022-12-23T09:57:33.151Z,13.65
2022-12-23T10:00:22.661Z,13.60
2022-12-23T10:03:11.831Z,12.15
2022-12-23T10:05:56.272Z,11.57
2022-12-23T10:08:36.365Z,11.68
2022-12-23T10:11:29.338Z,12.85
2022-12-23T10:13:58.108Z,11.60
2022-12-23T10:16:30.683Z,12.65
2022-12-23T10:19:08.630Z,11.60
2022-12-23T10:21:42.201Z,12.98
2022-12-23T10:24:46.203Z,12.65
2022-12-23T10:27:16.117Z,12.07
2022-12-23T10:29:42.970Z,12.98
2022-12-23T10:32:27.769Z,13.30
2022-12-23T10:35:22.223Z,13.38
2022-12-23T10:37:55.258Z,13.27
2022-12-23T10:40:22.228Z,12.38
2022-12-23T10:42:58.029Z,13.75
2022-12-23T10:45:54.782Z,14.05
2022-12-23T10:48:49.383Z,12.77
2022-12-23T10:51:19.462Z,12.88
2022-12-23T10:54:06.081Z,11.48
2022-12-23T10:56:33.284Z,13.80
2022-12-23T10:59:01.184Z,13.40
2022-12-23T11:01:30.597Z,13.75
2022-12-23T11:04:07.430Z,15.20
2022-12-23T11:06:39.495Z,13.85
2022-12-23T11:09:12.184Z,13.38
2022-12-23T11:11:56.555Z,14.80
2022-12-23T11:14:45.156Z,12.80
2022-12-23T11:17:27.956Z,14.63
2022-12-23T11:20:13.211Z,13.65
2022-12-23T11:22:51.350Z,14.15
2022-12-23T11:25:38.447Z,14.10
2022-12-23T11:28:10.139Z,14.32
2022-12-23T11:30:55.902Z,13.95
2022-12-23T11:33:28.608Z,11.90
2022-12-23T11:36:08.294Z,12.07
2022-12-23T11:38:38.109Z,13.43
2022-12-23T11:41:05.872Z,13.10
2022-12-23T11:43:34.000Z,12.77
2022-12-23T11:46:25.977Z,13.98
2022-12-23T11:49:18.356Z,14.77
2022-12-23T11:51:48.918Z,13.18
2022-12-23T11:54:20.582Z,14.35
2022-12-23T11:56:52.503Z,14.38
2022-12-23T11:59:27.998Z,14.43
2022-12-23T12:01:58.331Z,15.43
2022-12-23T12:04:26.543Z,14.25
2022-12-23T12:06:56.591Z,13.90
2022-12-23T12:09:24.556Z,15.13
2022-12-23T12:12:12.201Z,13.45
2022-12-23T12:14:44.724Z,13.65
2022-12-23T12:17:30.147Z,15.00
2022-12-23T12:20:02.966Z,15.95
2022-12-23T12:22:50.259Z,13.90
2022-12-23T12:25:22.551Z,14.95
2022-12-23T12:28:03.173Z,14.05
2022-12-23T12:30:38.399Z,14.55
2022-12-23T12:33:39.471Z,13.10
2022-12-23T12:36:28.784Z,15.98
2022-12-23T12:38:59.039Z,14.43
2022-12-23T12:42:12.009Z,14.45
2022-12-23T12:45:04.018Z,15.55
2022-12-23T12:48:14.584Z,14.95
2022-12-23T12:51:04.342Z,14.48
2022-12-23T12:53:33.486Z,15.23
2022-12-23T12:56:26.301Z,14.68
2022-12-23T12:58:53.194Z,14.55
2022-12-23T13:01:25.555Z,15.18
2022-12-23T13:04:13.792Z,14.25
2022-12-23T13:07:04.666Z,14.45
2022-12-23T13:09:37.130Z,15.60
2022-12-23T13:12:31.241Z,14.35
2022-12-23T13:15:16.436Z,14.05
2022-12-23T13:18:07.056Z,14.45
2022-12-23T13:20:48.596Z,13.70
2022-12-23T13:23:43.059Z,14.00
2022-12-23T13:26:24.766Z,13.75
2022-12-23T13:29:18.604Z,13.63
2022-12-23T13:31:45.350Z,13.50
2022-12-23T13:34:18.164Z,14.75
2022-12-23T13:36:53.575Z,13.95
2022-12-23T13:39:38.737Z,14.90
2022-12-23T13:42:11.948Z,14.45
2022-12-23T13:44:39.235Z,13.88
2022-12-23T13:47:28.590Z,14.55
2022-12-23T13:50:05.989Z,14.55
2022-12-23T13:52:51.544Z,14.40
2022-12-23T13:55:57.751Z,15.10
2022-12-23T13:58:31.234Z,14.30
2022-12-23T14:01:08.214Z,14.32
2022-12-23T14:03:36.632Z,14.25
2022-12-23T14:06:26.158Z,13.65
2022-12-23T14:08:54.469Z,13.35
2022-12-23T14:11:26.354Z,14.35
2022-12-23T14:14:02.813Z,14.80
2022-12-23T14:16:50.833Z,12.60
2022-12-23T14:19:38.809Z,14.65
2022-12-23T14:22:17.722Z,13.45
2022-12-23T14:25:19.069Z,15.00
2022-12-23T14:27:48.669Z,14.23
2022-12-23T14:30:16.767Z,12.18
2022-12-23T14:32:50.591Z,14.68
2022-12-23T14:35:34.267Z,11.95
2022-12-23T14:38:08.315Z,13.10
2022-12-23T14:40:38.119Z,12.20
2022-12-23T14:43:33.157Z,12.60
2022-12-23T14:46:02.385Z,13.05
2022-12-23T14:48:44.499Z,12.65
2022-12-23T14:51:14.268Z,10.15
2022-12-23T14:53:53.865Z,11.20
2022-12-23T14:56:44.008Z,12.00
2022-12-23T14:59:16.584Z,11.00
2022-12-23T15:01:57.880Z,10.77
2022-12-23T15:04:37.036Z,12.55
2022-12-23T15:07:07.490Z,10.35
2022-12-23T15:09:46.436Z,10.85
2022-12-23T15:12:18.897Z,12.97
2022-12-23T15:14:56.350Z,12.20
2022-12-23T15:17:28.993Z,11.50
2022-12-23T15:20:11.221Z,12.60
2022-12-23T15:22:44.841Z,11.45
2022-12-23T15:25:28.979Z,12.73
2022-12-23T15:28:01.566Z,11.60
2022-12-23T15:30:35.337Z,10.35
2022-12-23T15:33:15.988Z,12.30
2022-12-23T15:35:52.519Z,12.38
2022-12-23T15:38:20.460Z,11.38
2022-12-23T15:41:02.937Z,10.85
2022-12-23T15:43:30.364Z,10.60
2022-12-23T15:46:08.401Z,10.07
2022-12-23T15:48:35.724Z,11.32
2022-12-23T15:54:33.116Z,11.13
2022-12-23T15:57:01.659Z,10.98
2022-12-23T15:59:33.097Z,10.00
2022-12-23T16:02:40.854Z,10.50
2022-12-23T16:05:05.320Z,9.68
2022-12-23T16:07:37.817Z,10.68
2022-12-23T16:10:13.772Z,11.40
2022-12-23T16:12:41.296Z,9.40
2022-12-23T16:15:40.393Z,10.38
2022-12-23T16:18:25.672Z,10.63
2022-12-23T16:21:04.901Z,11.02
2022-12-23T16:23:34.916Z,10.45
2022-12-23T16:26:02.670Z,11.55
2022-12-23T16:28:46.985Z,11.30
2022-12-23T16:31:18.177Z,10.85
2022-12-23T16:33:47.750Z,10.80
2022-12-23T16:36:17.331Z,11.40
2022-12-23T16:38:44.604Z,12.20
2022-12-23T16:41:11.663Z,11.25
2022-12-23T16:43:38.531Z,11.00
2022-12-23T16:46:06.549Z,11.30
2022-12-23T16:48:37.331Z,11.80
2022-12-23T16:51:11.362Z,10.80
2022-12-23T16:53:38.540Z,10.88
2022-12-23T16:56:33.910Z,12.27
2022-12-23T16:59:00.940Z,10.63
2022-12-23T17:01:47.805Z,11.50
2022-12-23T17:04:15.623Z,10.40
2022-12-23T17:06:42.733Z,11.10
2022-12-23T17:09:11.383Z,11.40
2022-12-23T17:11:50.383Z,11.15
2022-12-23T17:14:20.069Z,11.35
2022-12-23T17:16:48.164Z,12.20
2022-12-23T17:19:16.294Z,10.35
2022-12-23T17:21:46.631Z,10.10
2022-12-23T17:24:23.656Z,10.75
2022-12-23T17:26:51.274Z,11.05
2022-12-23T17:29:18.176Z,11.07
2022-12-23T17:31:45.667Z,10.50
2022-12-23T17:34:24.252Z,10.35
2022-12-23T17:36:51.583Z,10.15
2022-12-23T17:39:20.807Z,11.93
2022-12-23T17:41:48.543Z,10.35
2022-12-23T17:44:16.809Z,10.50
2022-12-23T17:46:44.861Z,10.00
2022-12-23T17:49:11.770Z,9.70
2022-12-23T17:51:40.109Z,10.30
2022-12-23T17:54:07.042Z,10.10
2022-12-23T17:56:33.818Z,10.45
2022-12-23T17:59:00.700Z,11.98
2022-12-23T18:01:32.164Z,10.85
2022-12-23T18:04:00.026Z,9.30
2022-12-23T18:06:28.499Z,10.93
2022-12-23T18:08:57.406Z,11.48
2022-12-23T18:11:33.844Z,9.98
2022-12-23T18:14:01.523Z,9.10
2022-12-23T18:16:28.540Z,8.73
2022-12-23T18:18:55.389Z,10.52
2022-12-23T18:21:26.902Z,9.15
2022-12-23T18:23:56.717Z,8.68
2022-12-23T18:26:24.105Z,9.32
2022-12-23T18:28:52.731Z,9.18
2022-12-23T18:31:24.677Z,9.13
2022-12-23T18:33:51.740Z,10.05
2022-12-23T18:36:30.561Z,11.35
2022-12-23T18:38:57.888Z,11.00
2022-12-23T18:41:26.070Z,11.43
2022-12-23T18:43:53.942Z,11.98
2022-12-23T18:46:21.562Z,11.02
2022-12-23T18:48:48.568Z,11.30
2022-12-23T18:51:17.173Z,11.98
2022-12-23T18:53:44.259Z,12.75
2022-12-23T18:56:15.456Z,11.45
2022-12-23T18:58:42.872Z,10.55
2022-12-23T19:01:13.539Z,12.68
2022-12-23T19:03:41.098Z,12.55
2022-12-23T19:06:09.296Z,13.45
2022-12-23T19:08:37.299Z,13.52
2022-12-23T19:11:11.933Z,14.00
2022-12-23T19:13:38.820Z,14.85
2022-12-23T19:16:05.690Z,15.38
2022-12-23T19:18:32.477Z,13.77
2022-12-23T19:21:04.140Z,13.77
2022-12-23T19:23:30.962Z,15.18
2022-12-23T19:25:57.751Z,13.60
2022-12-23T19:28:24.903Z,13.68
2022-12-23T19:30:51.959Z,14.38
2022-12-23T19:33:18.872Z,14.70
2022-12-23T19:35:45.645Z,13.75
2022-12-23T19:38:12.702Z,14.02
2022-12-23T19:40:40.515Z,14.10
2022-12-23T19:43:08.070Z,13.15
2022-12-23T19:45:35.118Z,12.80
2022-12-23T19:48:01.915Z,13.43
2022-12-23T19:50:28.814Z,13.90
2022-12-23T19:52:56.539Z,13.88
2022-12-23T19:55:23.967Z,13.70
2022-12-23T19:57:51.796Z,13.50
2022-12-23T20:00:18.733Z,15.18
2022-12-23T20:02:45.568Z,15.13
2022-12-23T20:05:12.485Z,14.63
2022-12-23T20:07:39.407Z,14.30
2022-12-23T20:10:06.985Z,14.82
2022-12-23T20:12:33.775Z,16.38
2022-12-23T20:15:00.550Z,16.35
2022-12-23T20:17:27.434Z,14.02
2022-12-23T20:19:54.304Z,14.77
2022-12-23T20:22:21.052Z,15.23
2022-12-23T20:24:47.976Z,17.27
2022-12-23T20:27:16.132Z,16.80
2022-12-23T20:29:43.424Z,15.52
2022-12-23T20:32:10.644Z,15.88
2022-12-23T20:34:40.019Z,16.52
2022-12-23T20:37:07.456Z,16.27
2022-12-23T20:39:34.670Z,17.13
2022-12-23T20:42:01.472Z,15.77
2022-12-23T20:44:37.016Z,15.90
2022-12-23T20:47:05.662Z,17.10
2022-12-23T20:49:32.739Z,16.45
2022-12-23T20:51:59.476Z,17.05
2022-12-23T20:54:32.186Z,17.50
2022-12-23T20:56:59.837Z,18.48
2022-12-23T20:59:26.711Z,17.90
2022-12-23T21:01:53.647Z,18.98
2022-12-23T21:04:20.753Z,18.08
2022-12-23T21:06:47.585Z,17.92
2022-12-23T21:09:15.633Z,19.00
2022-12-23T21:11:44.885Z,17.58
2022-12-23T21:14:11.997Z,16.13
2022-12-23T21:16:39.650Z,16.05
2022-12-23T21:19:09.109Z,16.55
2022-12-23T21:21:36.399Z,15.40
2022-12-23T21:24:04.733Z,17.27
2022-12-23T21:26:33.400Z,16.05
2022-12-23T21:29:02.317Z,15.65
2022-12-23T21:31:31.180Z,15.40
2022-12-23T21:33:58.475Z,13.70
2022-12-23T21:36:28.008Z,16.75
2022-12-23T21:38:55.523Z,14.15
2022-12-23T21:41:28.431Z,16.02
2022-12-23T21:43:57.333Z,15.18
2022-12-23T21:46:25.200Z,15.60
2022-12-23T21:48:52.184Z,15.07
2022-12-23T21:51:31.916Z,15.05
2022-12-23T21:54:05.607Z,16.55
2022-12-23T21:56:32.622Z,14.35
2022-12-23T21:59:02.134Z,17.35
2022-12-23T22:01:29.634Z,15.32
2022-12-23T22:03:57.144Z,16.15
2022-12-23T22:06:28.187Z,15.23
2022-12-23T22:08:55.495Z,14.95
2022-12-23T22:11:28.234Z,14.00
2022-12-23T22:13:56.956Z,15.23
2022-12-23T22:16:25.746Z,14.35
2022-12-23T22:18:53.432Z,15.55
2022-12-23T22:21:22.561Z,16.90
2022-12-23T22:23:50.732Z,17.05
2022-12-23T22:26:24.820Z,17.35
2022-12-23T22:28:56.369Z,17.60
2022-12-23T22:31:33.578Z,17.25
2022-12-23T22:34:00.543Z,15.75
2022-12-23T22:36:27.475Z,16.35
2022-12-23T22:38:57.248Z,14.18
2022-12-23T22:41:25.428Z,15.25
2022-12-23T22:43:52.217Z,17.58
2022-12-23T22:46:19.527Z,15.85
2022-12-23T22:48:46.723Z,15.25
2022-12-23T22:51:19.433Z,15.38
2022-12-23T22:53:46.970Z,16.25
2022-12-23T22:56:16.120Z,18.05
2022-12-23T22:58:43.051Z,14.05
2022-12-23T23:01:29.662Z,13.00
2022-12-23T23:03:57.995Z,13.40
2022-12-23T23:06:37.916Z,15.98
2022-12-23T23:09:09.741Z,17.60
2022-12-23T23:11:36.571Z,17.15
2022-12-23T23:14:04.011Z,17.65
2022-12-23T23:16:30.895Z,15.80
2022-12-23T23:18:59.031Z,15.68
2022-12-23T23:21:26.719Z,13.48
2022-12-23T23:23:53.571Z,14.82
2022-12-23T23:26:21.393Z,13.00
2022-12-23T23:28:48.486Z,14.40
2022-12-23T23:34:02.345Z,12.15
2022-12-23T23:36:29.222Z,11.93
2022-12-23T23:38:56.013Z,11.30
2022-12-23T23:41:24.011Z,11.00
2022-12-23T23:43:51.965Z,11.15
2022-12-23T23:46:19.572Z,10.82
2022-12-23T23:48:46.412Z,9.73
2022-12-23T23:51:13.211Z,10.57
2022-12-23T23:53:40.489Z,10.35
2022-12-23T23:56:08.449Z,11.10
2022-12-23T23:58:36.534Z,10.45
